South Molton, United Kingdom
Current Conditions -  °F | °C
As of 8:20 PM on Thursday 29 Jan 2015 (Local Time) from EGTE Reporting Station
Few Clouds Few Clouds  
Wind Chill: 27°   Ceiling: Unl
Heat Index: 37°   Visibility: 6mi
Dew Point: 30°   Wind: 20mph
Humidity: 75%   Direction: 310°NW
Pressure: 29.03"   Gusts: NA
Location:  51.02°N, 3.83°W
Report Text: EGTE 292020Z 31017KT 9999 FEW020 03/M01 Q0983
Loading
Personal Weather Stations






























Interactive Weather Map New forecast layout! Learn more

10-Day Weather Forecast

Advertisements
Track Severe Weather on mobile